Black Lake, Canada
Current Conditions -  °F | °C
As of 11:47 PM on Saturday 20 Dec 2014 (Local Time) from CYSC Reporting Station
Haze Haze  
Wind Chill: 12°   Ceiling: 300
Heat Index: 12°   Visibility: 0.62mi
Dew Point: 10°   Wind: 3mph
Humidity: 92%   Direction: 80°E
Pressure: 30.3"   Gusts: NA
Location:  46.03°N, 71.37°W
Report Text: CYSC 210447Z AUTO 08003KT 5/8SM BR VV003 M11/M12 A3030 RMK ICG INTMT SLP280
Loading
Personal Weather Stations






























Interactive Weather Map New forecast layout! Learn more

10-Day Weather Forecast

Advertisements
Track Severe Weather on mobile